sensor_id;sensor_type;location;lat;lon;timestamp;P1;durP1;ratioP1;P2;durP2;ratioP2
23802;SDS011;12082;51.786;6.018;2022-12-29T00:00:06;129.57;;;123.47;;
23802;SDS011;12082;51.786;6.018;2022-12-29T00:02:32;130.13;;;124.00;;
23802;SDS011;12082;51.786;6.018;2022-12-29T00:04:58;129.57;;;123.63;;
23802;SDS011;12082;51.786;6.018;2022-12-29T00:07:24;134.10;;;127.97;;
23802;SDS011;12082;51.786;6.018;2022-12-29T00:09:50;133.37;;;127.10;;
23802;SDS011;12082;51.786;6.018;2022-12-29T00:12:16;129.50;;;123.50;;
23802;SDS011;12082;51.786;6.018;2022-12-29T00:14:42;130.90;;;124.87;;
23802;SDS011;12082;51.786;6.018;2022-12-29T00:17:27;128.03;;;122.17;;
23802;SDS011;12082;51.786;6.018;2022-12-29T00:19:53;134.37;;;128.27;;
23802;SDS011;12082;51.786;6.018;2022-12-29T00:22:37;134.87;;;128.73;;
23802;SDS011;12082;51.786;6.018;2022-12-29T00:25:22;130.40;;;124.40;;
23802;SDS011;12082;51.786;6.018;2022-12-29T00:28:08;130.70;;;124.70;;
23802;SDS011;12082;51.786;6.018;2022-12-29T00:30:53;137.13;;;130.83;;
23802;SDS011;12082;51.786;6.018;2022-12-29T00:33:37;129.07;;;123.13;;
23802;SDS011;12082;51.786;6.018;2022-12-29T00:38:58;141.80;;;135.37;;
23802;SDS011;12082;51.786;6.018;2022-12-29T00:41:43;138.93;;;132.63;;
23802;SDS011;12082;51.786;6.018;2022-12-29T00:44:29;139.40;;;132.90;;
23802;SDS011;12082;51.786;6.018;2022-12-29T00:46:55;132.17;;;126.07;;
23802;SDS011;12082;51.786;6.018;2022-12-29T00:49:21;136.40;;;130.20;;
23802;SDS011;12082;51.786;6.018;2022-12-29T00:52:04;133.73;;;127.40;;
23802;SDS011;12082;51.786;6.018;2022-12-29T00:54:31;142.90;;;136.47;;
23802;SDS011;12082;51.786;6.018;2022-12-29T00:56:57;132.53;;;126.43;;
23802;SDS011;12082;51.786;6.018;2022-12-29T00:59:23;136.13;;;129.97;;
23802;SDS011;12082;51.786;6.018;2022-12-29T01:01:50;152.17;;;145.20;;
23802;SDS011;12082;51.786;6.018;2022-12-29T01:04:17;139.87;;;133.53;;
23802;SDS011;12082;51.786;6.018;2022-12-29T01:06:43;136.67;;;130.47;;
23802;SDS011;12082;51.786;6.018;2022-12-29T01:09:09;139.40;;;133.10;;
23802;SDS011;12082;51.786;6.018;2022-12-29T01:11:54;140.47;;;133.97;;
23802;SDS011;12082;51.786;6.018;2022-12-29T01:14:20;139.87;;;133.33;;
23802;SDS011;12082;51.786;6.018;2022-12-29T01:16:47;134.90;;;128.70;;
23802;SDS011;12082;51.786;6.018;2022-12-29T01:19:13;137.53;;;131.33;;
23802;SDS011;12082;51.786;6.018;2022-12-29T01:21:39;139.50;;;133.07;;
23802;SDS011;12082;51.786;6.018;2022-12-29T01:24:05;138.53;;;132.30;;
23802;SDS011;12082;51.786;6.018;2022-12-29T01:26:31;141.07;;;134.67;;
23802;SDS011;12082;51.786;6.018;2022-12-29T01:28:57;142.43;;;135.93;;
23802;SDS011;12082;51.786;6.018;2022-12-29T01:31:23;140.33;;;133.93;;
23802;SDS011;12082;51.786;6.018;2022-12-29T01:33:49;139.47;;;133.07;;
23802;SDS011;12082;51.786;6.018;2022-12-29T01:36:16;134.07;;;127.90;;
23802;SDS011;12082;51.786;6.018;2022-12-29T01:38:42;138.87;;;132.47;;
23802;SDS011;12082;51.786;6.018;2022-12-29T01:41:09;133.87;;;127.77;;
23802;SDS011;12082;51.786;6.018;2022-12-29T01:43:43;136.10;;;129.67;;
23802;SDS011;12082;51.786;6.018;2022-12-29T01:46:18;137.67;;;131.27;;
23802;SDS011;12082;51.786;6.018;2022-12-29T01:48:46;141.57;;;135.07;;
23802;SDS011;12082;51.786;6.018;2022-12-29T01:51:13;139.40;;;133.03;;
23802;SDS011;12082;51.786;6.018;2022-12-29T01:53:39;141.33;;;133.93;;
23802;SDS011;12082;51.786;6.018;2022-12-29T01:56:06;138.90;;;132.50;;
23802;SDS011;12082;51.786;6.018;2022-12-29T01:58:34;137.87;;;131.33;;
23802;SDS011;12082;51.786;6.018;2022-12-29T02:01:02;135.80;;;129.60;;
23802;SDS011;12082;51.786;6.018;2022-12-29T02:03:28;139.53;;;133.03;;
23802;SDS011;12082;51.786;6.018;2022-12-29T02:06:14;134.43;;;128.30;;
23802;SDS011;12082;51.786;6.018;2022-12-29T02:08:43;132.43;;;126.43;;
23802;SDS011;12082;51.786;6.018;2022-12-29T02:11:11;135.97;;;129.50;;
23802;SDS011;12082;51.786;6.018;2022-12-29T02:13:38;132.97;;;126.93;;
23802;SDS011;12082;51.786;6.018;2022-12-29T02:21:37;142.57;;;136.07;;
23802;SDS011;12082;51.786;6.018;2022-12-29T02:24:12;144.30;;;137.73;;
23802;SDS011;12082;51.786;6.018;2022-12-29T02:37:26;133.50;;;127.23;;
23802;SDS011;12082;51.786;6.018;2022-12-29T02:43:00;140.17;;;133.37;;
23802;SDS011;12082;51.786;6.018;2022-12-29T02:45:31;134.23;;;128.07;;
23802;SDS011;12082;51.786;6.018;2022-12-29T02:48:04;187.93;;;178.73;;
23802;SDS011;12082;51.786;6.018;2022-12-29T02:50:35;130.50;;;124.40;;
23802;SDS011;12082;51.786;6.018;2022-12-29T02:53:07;123.67;;;117.83;;
23802;SDS011;12082;51.786;6.018;2022-12-29T02:55:34;115.40;;;110.03;;
23802;SDS011;12082;51.786;6.018;2022-12-29T02:58:06;112.40;;;106.83;;
23802;SDS011;12082;51.786;6.018;2022-12-29T03:00:38;117.47;;;111.87;;
23802;SDS011;12082;51.786;6.018;2022-12-29T03:18:59;107.73;;;102.77;;
23802;SDS011;12082;51.786;6.018;2022-12-29T03:21:29;106.37;;;101.53;;
23802;SDS011;12082;51.786;6.018;2022-12-29T03:24:17;103.60;;;98.50;;
23802;SDS011;12082;51.786;6.018;2022-12-29T03:26:44;100.83;;;96.17;;
23802;SDS011;12082;51.786;6.018;2022-12-29T03:29:11;104.67;;;99.97;;
23802;SDS011;12082;51.786;6.018;2022-12-29T03:31:38;102.23;;;97.63;;
23802;SDS011;12082;51.786;6.018;2022-12-29T03:34:04;101.93;;;97.30;;
23802;SDS011;12082;51.786;6.018;2022-12-29T03:36:32;113.03;;;107.73;;
23802;SDS011;12082;51.786;6.018;2022-12-29T03:39:02;102.10;;;97.00;;
23802;SDS011;12082;51.786;6.018;2022-12-29T03:41:30;101.97;;;97.27;;
23802;SDS011;12082;51.786;6.018;2022-12-29T03:43:57;109.67;;;104.60;;
23802;SDS011;12082;51.786;6.018;2022-12-29T03:46:23;113.80;;;108.50;;
23802;SDS011;12082;51.786;6.018;2022-12-29T03:48:49;112.83;;;107.57;;
23802;SDS011;12082;51.786;6.018;2022-12-29T03:51:15;109.80;;;104.47;;
23802;SDS011;12082;51.786;6.018;2022-12-29T03:53:41;110.73;;;105.70;;
23802;SDS011;12082;51.786;6.018;2022-12-29T03:56:07;111.33;;;106.23;;
23802;SDS011;12082;51.786;6.018;2022-12-29T03:58:33;107.47;;;102.63;;
23802;SDS011;12082;51.786;6.018;2022-12-29T04:00:59;105.13;;;100.20;;
23802;SDS011;12082;51.786;6.018;2022-12-29T04:03:25;105.60;;;100.83;;
23802;SDS011;12082;51.786;6.018;2022-12-29T04:05:51;115.10;;;109.90;;
23802;SDS011;12082;51.786;6.018;2022-12-29T04:08:17;112.87;;;107.77;;
23802;SDS011;12082;51.786;6.018;2022-12-29T04:10:42;110.47;;;104.87;;
23802;SDS011;12082;51.786;6.018;2022-12-29T04:13:08;114.83;;;109.50;;
23802;SDS011;12082;51.786;6.018;2022-12-29T04:15:35;110.47;;;104.97;;
23802;SDS011;12082;51.786;6.018;2022-12-29T04:18:01;114.83;;;109.40;;
23802;SDS011;12082;51.786;6.018;2022-12-29T04:20:27;111.87;;;106.47;;
23802;SDS011;12082;51.786;6.018;2022-12-29T04:23:20;119.67;;;114.13;;
23802;SDS011;12082;51.786;6.018;2022-12-29T04:25:46;112.17;;;106.97;;
23802;SDS011;12082;51.786;6.018;2022-12-29T04:28:12;115.83;;;110.63;;
23802;SDS011;12082;51.786;6.018;2022-12-29T04:30:38;112.73;;;107.43;;
23802;SDS011;12082;51.786;6.018;2022-12-29T04:33:04;117.70;;;112.27;;
23802;SDS011;12082;51.786;6.018;2022-12-29T04:35:30;116.40;;;111.20;;
23802;SDS011;12082;51.786;6.018;2022-12-29T04:37:56;111.90;;;106.60;;
23802;SDS011;12082;51.786;6.018;2022-12-29T04:40:22;116.77;;;111.40;;
23802;SDS011;12082;51.786;6.018;2022-12-29T04:42:49;123.00;;;117.40;;
23802;SDS011;12082;51.786;6.018;2022-12-29T04:45:15;125.70;;;119.60;;
23802;SDS011;12082;51.786;6.018;2022-12-29T04:47:40;129.13;;;123.03;;
23802;SDS011;12082;51.786;6.018;2022-12-29T04:50:06;139.20;;;132.33;;
23802;SDS011;12082;51.786;6.018;2022-12-29T04:52:33;144.80;;;138.00;;
23802;SDS011;12082;51.786;6.018;2022-12-29T04:54:59;148.63;;;141.47;;
23802;SDS011;12082;51.786;6.018;2022-12-29T04:57:25;155.43;;;147.73;;
23802;SDS011;12082;51.786;6.018;2022-12-29T04:59:51;158.77;;;151.30;;
23802;SDS011;12082;51.786;6.018;2022-12-29T05:02:17;152.60;;;145.57;;
23802;SDS011;12082;51.786;6.018;2022-12-29T05:04:43;161.63;;;153.73;;
23802;SDS011;12082;51.786;6.018;2022-12-29T05:07:09;152.33;;;145.13;;
23802;SDS011;12082;51.786;6.018;2022-12-29T05:09:35;159.13;;;151.83;;
23802;SDS011;12082;51.786;6.018;2022-12-29T05:12:01;153.07;;;145.70;;
23802;SDS011;12082;51.786;6.018;2022-12-29T05:14:27;158.70;;;151.23;;
23802;SDS011;12082;51.786;6.018;2022-12-29T05:16:53;159.93;;;151.87;;
23802;SDS011;12082;51.786;6.018;2022-12-29T05:19:19;158.70;;;151.40;;
23802;SDS011;12082;51.786;6.018;2022-12-29T05:21:45;158.13;;;150.37;;
23802;SDS011;12082;51.786;6.018;2022-12-29T05:24:10;162.00;;;154.10;;
23802;SDS011;12082;51.786;6.018;2022-12-29T05:26:36;159.13;;;151.73;;
23802;SDS011;12082;51.786;6.018;2022-12-29T05:29:02;170.53;;;162.30;;
23802;SDS011;12082;51.786;6.018;2022-12-29T05:31:28;190.00;;;180.53;;
23802;SDS011;12082;51.786;6.018;2022-12-29T05:33:54;190.03;;;180.80;;
23802;SDS011;12082;51.786;6.018;2022-12-29T05:36:20;222.17;;;210.97;;
23802;SDS011;12082;51.786;6.018;2022-12-29T05:38:46;157.63;;;149.83;;
23802;SDS011;12082;51.786;6.018;2022-12-29T05:41:12;174.60;;;165.87;;
23802;SDS011;12082;51.786;6.018;2022-12-29T05:43:38;144.13;;;137.43;;
23802;SDS011;12082;51.786;6.018;2022-12-29T05:46:04;175.57;;;167.07;;
23802;SDS011;12082;51.786;6.018;2022-12-29T05:48:30;145.93;;;138.73;;
23802;SDS011;12082;51.786;6.018;2022-12-29T05:50:56;144.17;;;137.20;;
23802;SDS011;12082;51.786;6.018;2022-12-29T05:53:22;152.60;;;145.13;;
23802;SDS011;12082;51.786;6.018;2022-12-29T05:55:48;142.23;;;135.23;;
23802;SDS011;12082;51.786;6.018;2022-12-29T05:58:15;150.57;;;143.50;;
23802;SDS011;12082;51.786;6.018;2022-12-29T06:00:44;145.53;;;138.30;;
23802;SDS011;12082;51.786;6.018;2022-12-29T06:03:10;139.53;;;132.50;;
23802;SDS011;12082;51.786;6.018;2022-12-29T06:05:36;141.10;;;134.27;;
23802;SDS011;12082;51.786;6.018;2022-12-29T06:08:02;144.13;;;137.07;;
23802;SDS011;12082;51.786;6.018;2022-12-29T06:10:28;145.30;;;138.33;;
23802;SDS011;12082;51.786;6.018;2022-12-29T06:12:54;137.23;;;130.33;;
23802;SDS011;12082;51.786;6.018;2022-12-29T06:15:20;128.73;;;122.83;;
23802;SDS011;12082;51.786;6.018;2022-12-29T06:17:46;141.43;;;134.57;;
23802;SDS011;12082;51.786;6.018;2022-12-29T06:20:12;134.37;;;127.70;;
23802;SDS011;12082;51.786;6.018;2022-12-29T06:22:38;155.37;;;147.83;;
23802;SDS011;12082;51.786;6.018;2022-12-29T06:25:04;140.23;;;133.63;;
23802;SDS011;12082;51.786;6.018;2022-12-29T06:27:30;121.60;;;115.80;;
23802;SDS011;12082;51.786;6.018;2022-12-29T06:29:56;126.37;;;120.43;;
23802;SDS011;12082;51.786;6.018;2022-12-29T06:32:22;119.80;;;114.00;;
23802;SDS011;12082;51.786;6.018;2022-12-29T06:34:48;115.60;;;109.60;;
23802;SDS011;12082;51.786;6.018;2022-12-29T06:37:14;120.73;;;114.97;;
23802;SDS011;12082;51.786;6.018;2022-12-29T06:39:40;119.63;;;113.67;;
23802;SDS011;12082;51.786;6.018;2022-12-29T06:42:08;107.03;;;101.77;;
23802;SDS011;12082;51.786;6.018;2022-12-29T06:44:34;115.73;;;110.17;;
23802;SDS011;12082;51.786;6.018;2022-12-29T06:47:00;114.57;;;109.07;;
23802;SDS011;12082;51.786;6.018;2022-12-29T06:49:26;104.87;;;99.73;;
23802;SDS011;12082;51.786;6.018;2022-12-29T06:51:52;126.37;;;120.47;;
23802;SDS011;12082;51.786;6.018;2022-12-29T06:54:18;105.60;;;100.60;;
23802;SDS011;12082;51.786;6.018;2022-12-29T06:56:44;104.07;;;99.20;;
23802;SDS011;12082;51.786;6.018;2022-12-29T06:59:10;105.30;;;99.90;;
23802;SDS011;12082;51.786;6.018;2022-12-29T07:01:36;103.37;;;98.50;;
23802;SDS011;12082;51.786;6.018;2022-12-29T07:04:02;117.17;;;111.33;;
23802;SDS011;12082;51.786;6.018;2022-12-29T07:06:28;117.20;;;111.40;;
23802;SDS011;12082;51.786;6.018;2022-12-29T07:08:54;108.50;;;103.07;;
23802;SDS011;12082;51.786;6.018;2022-12-29T07:11:22;104.10;;;99.00;;
23802;SDS011;12082;51.786;6.018;2022-12-29T07:13:48;127.53;;;121.40;;
23802;SDS011;12082;51.786;6.018;2022-12-29T07:16:15;106.73;;;101.40;;
23802;SDS011;12082;51.786;6.018;2022-12-29T07:18:41;110.80;;;105.00;;
23802;SDS011;12082;51.786;6.018;2022-12-29T07:21:06;103.47;;;98.63;;
23802;SDS011;12082;51.786;6.018;2022-12-29T07:23:32;116.00;;;110.47;;
23802;SDS011;12082;51.786;6.018;2022-12-29T07:26:02;109.50;;;103.27;;
23802;SDS011;12082;51.786;6.018;2022-12-29T07:28:28;108.87;;;103.50;;
23802;SDS011;12082;51.786;6.018;2022-12-29T07:30:54;99.87;;;95.03;;
23802;SDS011;12082;51.786;6.018;2022-12-29T07:33:20;91.63;;;86.57;;
23802;SDS011;12082;51.786;6.018;2022-12-29T07:35:46;97.43;;;92.53;;
23802;SDS011;12082;51.786;6.018;2022-12-29T07:38:12;94.20;;;89.63;;
23802;SDS011;12082;51.786;6.018;2022-12-29T07:40:39;89.90;;;85.23;;
23802;SDS011;12082;51.786;6.018;2022-12-29T07:43:05;92.50;;;87.83;;
23802;SDS011;12082;51.786;6.018;2022-12-29T07:45:31;96.40;;;91.57;;
23802;SDS011;12082;51.786;6.018;2022-12-29T07:47:57;89.97;;;85.13;;
23802;SDS011;12082;51.786;6.018;2022-12-29T07:50:23;90.73;;;85.80;;
23802;SDS011;12082;51.786;6.018;2022-12-29T07:52:49;94.13;;;89.47;;
23802;SDS011;12082;51.786;6.018;2022-12-29T07:55:15;89.03;;;84.63;;
23802;SDS011;12082;51.786;6.018;2022-12-29T07:57:42;91.63;;;86.50;;
23802;SDS011;12082;51.786;6.018;2022-12-29T08:00:08;91.77;;;87.03;;
23802;SDS011;12082;51.786;6.018;2022-12-29T08:02:34;93.10;;;87.77;;
23802;SDS011;12082;51.786;6.018;2022-12-29T08:05:00;89.13;;;84.73;;
23802;SDS011;12082;51.786;6.018;2022-12-29T08:07:26;89.67;;;85.47;;
23802;SDS011;12082;51.786;6.018;2022-12-29T08:09:52;87.73;;;83.20;;
23802;SDS011;12082;51.786;6.018;2022-12-29T08:12:18;97.50;;;91.77;;
23802;SDS011;12082;51.786;6.018;2022-12-29T08:14:44;93.83;;;89.10;;
23802;SDS011;12082;51.786;6.018;2022-12-29T08:17:10;91.97;;;86.60;;
23802;SDS011;12082;51.786;6.018;2022-12-29T08:19:37;95.50;;;90.13;;
23802;SDS011;12082;51.786;6.018;2022-12-29T08:22:03;91.20;;;85.87;;
23802;SDS011;12082;51.786;6.018;2022-12-29T08:24:29;89.87;;;85.13;;
23802;SDS011;12082;51.786;6.018;2022-12-29T08:26:55;92.97;;;88.30;;
23802;SDS011;12082;51.786;6.018;2022-12-29T08:29:21;99.33;;;93.97;;
23802;SDS011;12082;51.786;6.018;2022-12-29T08:31:47;91.60;;;87.13;;
23802;SDS011;12082;51.786;6.018;2022-12-29T08:34:13;90.67;;;86.00;;
23802;SDS011;12082;51.786;6.018;2022-12-29T08:36:39;92.87;;;88.00;;
23802;SDS011;12082;51.786;6.018;2022-12-29T08:39:05;97.43;;;92.63;;
23802;SDS011;12082;51.786;6.018;2022-12-29T08:41:31;97.60;;;92.90;;
23802;SDS011;12082;51.786;6.018;2022-12-29T08:43:57;100.63;;;94.80;;
23802;SDS011;12082;51.786;6.018;2022-12-29T08:46:23;97.20;;;92.23;;
23802;SDS011;12082;51.786;6.018;2022-12-29T08:48:49;99.93;;;94.43;;
23802;SDS011;12082;51.786;6.018;2022-12-29T08:51:15;98.53;;;93.00;;
23802;SDS011;12082;51.786;6.018;2022-12-29T08:53:42;98.53;;;93.50;;
23802;SDS011;12082;51.786;6.018;2022-12-29T08:56:08;97.77;;;92.67;;
23802;SDS011;12082;51.786;6.018;2022-12-29T08:58:34;95.40;;;90.17;;
23802;SDS011;12082;51.786;6.018;2022-12-29T09:01:01;122.20;;;115.43;;
23802;SDS011;12082;51.786;6.018;2022-12-29T09:03:27;99.60;;;94.50;;
23802;SDS011;12082;51.786;6.018;2022-12-29T09:05:53;96.87;;;91.53;;
23802;SDS011;12082;51.786;6.018;2022-12-29T09:08:19;91.60;;;86.97;;
23802;SDS011;12082;51.786;6.018;2022-12-29T09:10:45;89.97;;;85.50;;
23802;SDS011;12082;51.786;6.018;2022-12-29T09:13:12;98.03;;;92.73;;
23802;SDS011;12082;51.786;6.018;2022-12-29T09:15:38;97.93;;;92.43;;
23802;SDS011;12082;51.786;6.018;2022-12-29T09:18:05;100.20;;;95.33;;
23802;SDS011;12082;51.786;6.018;2022-12-29T09:20:31;85.97;;;81.83;;
23802;SDS011;12082;51.786;6.018;2022-12-29T09:22:57;83.00;;;78.60;;
23802;SDS011;12082;51.786;6.018;2022-12-29T09:25:23;88.20;;;83.80;;
23802;SDS011;12082;51.786;6.018;2022-12-29T09:27:50;85.50;;;80.97;;
23802;SDS011;12082;51.786;6.018;2022-12-29T09:30:18;81.87;;;77.80;;
23802;SDS011;12082;51.786;6.018;2022-12-29T09:32:44;84.50;;;80.13;;
23802;SDS011;12082;51.786;6.018;2022-12-29T09:35:10;101.53;;;96.00;;
23802;SDS011;12082;51.786;6.018;2022-12-29T09:37:36;97.07;;;91.97;;
23802;SDS011;12082;51.786;6.018;2022-12-29T09:40:02;91.83;;;87.13;;
23802;SDS011;12082;51.786;6.018;2022-12-29T09:42:38;90.27;;;85.80;;
23802;SDS011;12082;51.786;6.018;2022-12-29T09:45:15;95.70;;;90.63;;
23802;SDS011;12082;51.786;6.018;2022-12-29T09:47:43;94.53;;;89.87;;
23802;SDS011;12082;51.786;6.018;2022-12-29T09:50:13;91.20;;;86.23;;
23802;SDS011;12082;51.786;6.018;2022-12-29T09:52:42;109.93;;;104.60;;
23802;SDS011;12082;51.786;6.018;2022-12-29T09:55:10;97.27;;;92.27;;
23802;SDS011;12082;51.786;6.018;2022-12-29T09:57:48;113.93;;;107.53;;
23802;SDS011;12082;51.786;6.018;2022-12-29T10:00:19;96.60;;;91.80;;
23802;SDS011;12082;51.786;6.018;2022-12-29T10:02:46;96.90;;;91.87;;
23802;SDS011;12082;51.786;6.018;2022-12-29T10:07:45;99.23;;;94.10;;
23802;SDS011;12082;51.786;6.018;2022-12-29T10:10:23;101.73;;;96.60;;
23802;SDS011;12082;51.786;6.018;2022-12-29T10:25:46;125.80;;;119.20;;
23802;SDS011;12082;51.786;6.018;2022-12-29T10:28:17;131.57;;;125.40;;
23802;SDS011;12082;51.786;6.018;2022-12-29T10:30:45;164.33;;;156.00;;
23802;SDS011;12082;51.786;6.018;2022-12-29T10:33:12;142.97;;;135.93;;
23802;SDS011;12082;51.786;6.018;2022-12-29T10:35:41;140.27;;;133.10;;
23802;SDS011;12082;51.786;6.018;2022-12-29T10:38:27;147.03;;;139.57;;
23802;SDS011;12082;51.786;6.018;2022-12-29T10:43:52;168.10;;;159.90;;
23802;SDS011;12082;51.786;6.018;2022-12-29T10:46:19;183.23;;;174.60;;
23802;SDS011;12082;51.786;6.018;2022-12-29T10:48:46;160.60;;;153.00;;
23802;SDS011;12082;51.786;6.018;2022-12-29T10:51:36;156.17;;;148.50;;
23802;SDS011;12082;51.786;6.018;2022-12-29T10:54:00;201.73;;;192.23;;
23802;SDS011;12082;51.786;6.018;2022-12-29T10:56:35;163.27;;;155.47;;
23802;SDS011;12082;51.786;6.018;2022-12-29T10:59:12;151.80;;;144.53;;
23802;SDS011;12082;51.786;6.018;2022-12-29T11:01:42;159.03;;;151.40;;
23802;SDS011;12082;51.786;6.018;2022-12-29T11:06:56;149.63;;;142.20;;
23802;SDS011;12082;51.786;6.018;2022-12-29T11:09:27;160.70;;;153.20;;
23802;SDS011;12082;51.786;6.018;2022-12-29T11:11:54;148.17;;;141.03;;
23802;SDS011;12082;51.786;6.018;2022-12-29T11:14:30;149.47;;;141.67;;
23802;SDS011;12082;51.786;6.018;2022-12-29T11:17:00;152.13;;;144.40;;
23802;SDS011;12082;51.786;6.018;2022-12-29T11:19:31;157.03;;;148.77;;
23802;SDS011;12082;51.786;6.018;2022-12-29T11:24:53;155.93;;;147.87;;
23802;SDS011;12082;51.786;6.018;2022-12-29T11:27:21;160.30;;;152.43;;
23802;SDS011;12082;51.786;6.018;2022-12-29T11:29:48;156.87;;;149.27;;
23802;SDS011;12082;51.786;6.018;2022-12-29T11:34:46;157.40;;;149.43;;
23802;SDS011;12082;51.786;6.018;2022-12-29T11:37:14;148.23;;;141.27;;
23802;SDS011;12082;51.786;6.018;2022-12-29T11:42:17;145.17;;;138.23;;
23802;SDS011;12082;51.786;6.018;2022-12-29T11:44:45;168.23;;;160.10;;
23802;SDS011;12082;51.786;6.018;2022-12-29T11:47:22;149.60;;;142.40;;
23802;SDS011;12082;51.786;6.018;2022-12-29T11:49:49;142.43;;;135.03;;
23802;SDS011;12082;51.786;6.018;2022-12-29T11:52:15;159.97;;;152.30;;
23802;SDS011;12082;51.786;6.018;2022-12-29T11:54:42;152.53;;;144.90;;
23802;SDS011;12082;51.786;6.018;2022-12-29T11:57:09;158.27;;;150.37;;
23802;SDS011;12082;51.786;6.018;2022-12-29T11:59:39;134.30;;;127.50;;
23802;SDS011;12082;51.786;6.018;2022-12-29T12:04:59;133.37;;;126.33;;
23802;SDS011;12082;51.786;6.018;2022-12-29T12:07:34;146.50;;;139.03;;
23802;SDS011;12082;51.786;6.018;2022-12-29T12:10:03;158.67;;;150.33;;
23802;SDS011;12082;51.786;6.018;2022-12-29T12:14:58;130.53;;;123.57;;
23802;SDS011;12082;51.786;6.018;2022-12-29T12:17:27;130.07;;;123.33;;
23802;SDS011;12082;51.786;6.018;2022-12-29T12:20:04;184.57;;;174.73;;
23802;SDS011;12082;51.786;6.018;2022-12-29T12:22:41;153.10;;;145.60;;
23802;SDS011;12082;51.786;6.018;2022-12-29T12:27:56;140.83;;;133.30;;
23802;SDS011;12082;51.786;6.018;2022-12-29T12:30:24;134.13;;;127.23;;
23802;SDS011;12082;51.786;6.018;2022-12-29T12:40:34;142.97;;;135.07;;
23802;SDS011;12082;51.786;6.018;2022-12-29T12:48:27;150.23;;;142.47;;
23802;SDS011;12082;51.786;6.018;2022-12-29T13:03:59;131.73;;;124.60;;
23802;SDS011;12082;51.786;6.018;2022-12-29T13:14:24;125.27;;;118.73;;
23802;SDS011;12082;51.786;6.018;2022-12-29T13:17:03;124.47;;;118.20;;
23802;SDS011;12082;51.786;6.018;2022-12-29T13:25:17;117.00;;;111.07;;
23802;SDS011;12082;51.786;6.018;2022-12-29T13:27:50;131.73;;;124.53;;
23802;SDS011;12082;51.786;6.018;2022-12-29T13:30:34;117.10;;;111.23;;
23802;SDS011;12082;51.786;6.018;2022-12-29T13:35:50;119.67;;;113.57;;
23802;SDS011;12082;51.786;6.018;2022-12-29T13:38:22;125.23;;;118.77;;
23802;SDS011;12082;51.786;6.018;2022-12-29T13:40:51;127.13;;;120.33;;
23802;SDS011;12082;51.786;6.018;2022-12-29T13:43:18;128.43;;;122.10;;
23802;SDS011;12082;51.786;6.018;2022-12-29T13:45:55;121.47;;;115.00;;
23802;SDS011;12082;51.786;6.018;2022-12-29T13:48:24;119.87;;;113.80;;
23802;SDS011;12082;51.786;6.018;2022-12-29T13:50:57;118.20;;;110.47;;
23802;SDS011;12082;51.786;6.018;2022-12-29T13:53:30;117.47;;;111.07;;
23802;SDS011;12082;51.786;6.018;2022-12-29T13:56:07;116.03;;;109.93;;
23802;SDS011;12082;51.786;6.018;2022-12-29T14:01:10;115.53;;;109.93;;
23802;SDS011;12082;51.786;6.018;2022-12-29T14:06:15;149.60;;;142.47;;
23802;SDS011;12082;51.786;6.018;2022-12-29T14:08:41;134.27;;;127.63;;
23802;SDS011;12082;51.786;6.018;2022-12-29T14:11:11;142.17;;;134.83;;
23802;SDS011;12082;51.786;6.018;2022-12-29T14:13:41;155.83;;;148.23;;
23802;SDS011;12082;51.786;6.018;2022-12-29T14:16:10;158.90;;;151.07;;
23802;SDS011;12082;51.786;6.018;2022-12-29T14:18:46;167.53;;;159.27;;
23802;SDS011;12082;51.786;6.018;2022-12-29T14:28:34;196.87;;;187.20;;
23802;SDS011;12082;51.786;6.018;2022-12-29T14:31:42;195.97;;;186.23;;
23802;SDS011;12082;51.786;6.018;2022-12-29T14:39:00;194.03;;;184.60;;
23802;SDS011;12082;51.786;6.018;2022-12-29T14:41:30;199.80;;;189.30;;
23802;SDS011;12082;51.786;6.018;2022-12-29T14:43:59;194.73;;;184.80;;
23802;SDS011;12082;51.786;6.018;2022-12-29T14:46:41;192.83;;;183.00;;
23802;SDS011;12082;51.786;6.018;2022-12-29T14:49:08;196.70;;;187.47;;
23802;SDS011;12082;51.786;6.018;2022-12-29T14:51:36;189.70;;;180.23;;
23802;SDS011;12082;51.786;6.018;2022-12-29T14:54:34;197.47;;;187.73;;
23802;SDS011;12082;51.786;6.018;2022-12-29T14:56:48;202.07;;;192.00;;
23802;SDS011;12082;51.786;6.018;2022-12-29T14:59:14;195.33;;;185.83;;
23802;SDS011;12082;51.786;6.018;2022-12-29T15:01:46;199.63;;;190.20;;
23802;SDS011;12082;51.786;6.018;2022-12-29T15:04:15;199.17;;;189.07;;
23802;SDS011;12082;51.786;6.018;2022-12-29T15:06:42;206.37;;;196.43;;
23802;SDS011;12082;51.786;6.018;2022-12-29T15:14:01;212.53;;;202.23;;
23802;SDS011;12082;51.786;6.018;2022-12-29T15:16:32;192.70;;;182.87;;
23802;SDS011;12082;51.786;6.018;2022-12-29T15:18:59;198.90;;;189.17;;
23802;SDS011;12082;51.786;6.018;2022-12-29T15:21:26;196.43;;;187.07;;
23802;SDS011;12082;51.786;6.018;2022-12-29T15:23:52;191.93;;;181.93;;
23802;SDS011;12082;51.786;6.018;2022-12-29T15:26:18;183.10;;;174.17;;
23802;SDS011;12082;51.786;6.018;2022-12-29T15:28:47;196.33;;;186.70;;
23802;SDS011;12082;51.786;6.018;2022-12-29T15:31:21;194.40;;;185.17;;
23802;SDS011;12082;51.786;6.018;2022-12-29T15:33:52;184.70;;;175.60;;
23802;SDS011;12082;51.786;6.018;2022-12-29T15:38:45;183.67;;;174.73;;
23802;SDS011;12082;51.786;6.018;2022-12-29T15:46:21;183.27;;;173.80;;
23802;SDS011;12082;51.786;6.018;2022-12-29T15:48:47;188.17;;;178.93;;
23802;SDS011;12082;51.786;6.018;2022-12-29T15:51:16;179.30;;;170.03;;
23802;SDS011;12082;51.786;6.018;2022-12-29T15:53:42;201.47;;;191.50;;
23802;SDS011;12082;51.786;6.018;2022-12-29T15:56:12;181.50;;;172.03;;
23802;SDS011;12082;51.786;6.018;2022-12-29T15:58:42;176.87;;;167.67;;
23802;SDS011;12082;51.786;6.018;2022-12-29T16:01:16;174.37;;;165.80;;
23802;SDS011;12082;51.786;6.018;2022-12-29T16:03:43;174.13;;;165.37;;
23802;SDS011;12082;51.786;6.018;2022-12-29T16:06:23;172.80;;;163.77;;
23802;SDS011;12082;51.786;6.018;2022-12-29T16:08:57;172.37;;;163.93;;
23802;SDS011;12082;51.786;6.018;2022-12-29T16:11:29;165.47;;;157.23;;
23802;SDS011;12082;51.786;6.018;2022-12-29T16:13:56;160.30;;;152.63;;
23802;SDS011;12082;51.786;6.018;2022-12-29T16:16:29;154.83;;;147.33;;
23802;SDS011;12082;51.786;6.018;2022-12-29T16:18:56;184.63;;;175.90;;
23802;SDS011;12082;51.786;6.018;2022-12-29T16:21:24;156.20;;;149.00;;
23802;SDS011;12082;51.786;6.018;2022-12-29T16:23:52;157.00;;;149.03;;
23802;SDS011;12082;51.786;6.018;2022-12-29T16:26:20;158.50;;;151.10;;
23802;SDS011;12082;51.786;6.018;2022-12-29T16:28:47;152.40;;;145.03;;
23802;SDS011;12082;51.786;6.018;2022-12-29T16:31:23;154.10;;;146.80;;
23802;SDS011;12082;51.786;6.018;2022-12-29T16:33:53;156.07;;;148.70;;
23802;SDS011;12082;51.786;6.018;2022-12-29T16:39:02;155.97;;;148.43;;